createdAt,value
2023-04-08T00:00:59.654Z,118.90
2023-04-08T00:03:32.966Z,118.13
2023-04-08T00:06:06.681Z,115.43
2023-04-08T00:08:39.942Z,109.27
2023-04-08T00:11:15.074Z,115.43
2023-04-08T00:13:48.922Z,106.83
2023-04-08T00:16:22.413Z,102.70
2023-04-08T00:18:55.565Z,107.87
2023-04-08T00:21:28.447Z,109.57
2023-04-08T00:24:01.274Z,101.30
2023-04-08T00:26:36.235Z,89.90
2023-04-08T00:29:09.539Z,94.53
2023-04-08T00:31:43.166Z,93.23
2023-04-08T00:34:16.985Z,89.57
2023-04-08T00:36:50.692Z,94.47
2023-04-08T00:39:23.826Z,90.50
2023-04-08T00:41:59.180Z,89.77
2023-04-08T00:44:32.356Z,86.77
2023-04-08T00:47:05.688Z,90.10
2023-04-08T00:49:39.238Z,94.50
2023-04-08T00:52:12.723Z,94.23
2023-04-08T00:54:46.978Z,95.03
2023-04-08T00:57:22.702Z,91.00
2023-04-08T00:59:56.022Z,97.97
2023-04-08T01:02:36.271Z,100.13
2023-04-08T01:05:11.676Z,94.33
2023-04-08T01:07:50.444Z,90.43
2023-04-08T01:10:29.683Z,91.33
2023-04-08T01:13:09.607Z,88.97
2023-04-08T01:15:44.072Z,94.23
2023-04-08T01:18:19.819Z,89.80
2023-04-08T01:20:53.825Z,83.60
2023-04-08T01:23:36.782Z,105.07
2023-04-08T01:26:11.563Z,94.60
2023-04-08T01:28:46.464Z,93.87
2023-04-08T01:31:20.726Z,90.90
2023-04-08T01:33:55.407Z,82.73
2023-04-08T01:36:29.945Z,90.27
2023-04-08T01:39:03.587Z,91.03
2023-04-08T01:41:39.658Z,94.90
2023-04-08T01:44:13.611Z,89.30
2023-04-08T01:46:48.199Z,87.37
2023-04-08T01:49:22.097Z,85.33
2023-04-08T01:51:57.577Z,102.23
2023-04-08T01:54:31.480Z,89.10
2023-04-08T01:57:11.649Z,92.70
2023-04-08T01:59:45.829Z,100.00
2023-04-08T02:02:21.219Z,86.63
2023-04-08T02:04:54.616Z,100.47
2023-04-08T02:07:30.437Z,97.77
2023-04-08T02:10:04.898Z,92.93
2023-04-08T02:12:41.160Z,102.40
2023-04-08T02:15:18.327Z,98.47
2023-04-08T02:17:54.549Z,104.43
2023-04-08T02:20:30.837Z,103.53
2023-04-08T02:23:12.433Z,100.50
2023-04-08T02:25:49.902Z,102.00
2023-04-08T02:28:28.918Z,98.70
2023-04-08T02:31:03.419Z,102.23
2023-04-08T02:33:38.969Z,101.53
2023-04-08T02:36:13.268Z,102.97
2023-04-08T02:38:51.558Z,88.80
2023-04-08T02:41:24.797Z,78.40
2023-04-08T02:44:00.240Z,96.70
2023-04-08T02:46:33.751Z,97.37
2023-04-08T02:49:09.875Z,96.63
2023-04-08T02:51:43.860Z,88.57
2023-04-08T02:54:16.864Z,108.27
2023-04-08T02:56:50.144Z,93.63
2023-04-08T02:59:25.300Z,98.87
2023-04-08T03:01:59.578Z,95.60
2023-04-08T03:04:33.120Z,94.40
2023-04-08T03:07:08.675Z,90.60
2023-04-08T03:09:44.382Z,93.70
2023-04-08T03:12:18.276Z,87.17
2023-04-08T03:14:54.603Z,98.70
2023-04-08T03:17:27.726Z,95.63
2023-04-08T03:20:00.608Z,90.23
2023-04-08T03:22:34.175Z,94.10
2023-04-08T03:25:07.746Z,86.97
2023-04-08T03:27:41.572Z,88.40
2023-04-08T03:30:17.148Z,102.93
2023-04-08T03:32:50.349Z,100.80
2023-04-08T03:35:23.962Z,80.57
2023-04-08T03:37:57.193Z,80.23
2023-04-08T03:40:30.907Z,92.97
2023-04-08T03:43:05.223Z,102.60
2023-04-08T03:45:40.521Z,95.90
2023-04-08T03:48:14.001Z,86.33
2023-04-08T03:50:47.480Z,88.87
2023-04-08T03:53:20.705Z,86.77
2023-04-08T03:55:54.679Z,82.50
2023-04-08T03:58:29.099Z,82.53
2023-04-08T04:01:05.537Z,84.53
2023-04-08T04:03:39.813Z,89.50
2023-04-08T04:06:13.175Z,90.87
2023-04-08T04:08:46.397Z,100.17
2023-04-08T04:11:19.245Z,105.60
2023-04-08T04:13:53.606Z,93.57
2023-04-08T04:16:29.784Z,84.53
2023-04-08T04:19:04.529Z,88.33
2023-04-08T04:21:38.330Z,91.43
2023-04-08T04:24:12.205Z,84.23
2023-04-08T04:26:46.729Z,92.20
2023-04-08T04:29:19.625Z,83.33
2023-04-08T04:31:54.330Z,95.37
2023-04-08T04:34:28.550Z,86.07
2023-04-08T04:37:02.465Z,95.87
2023-04-08T04:39:43.662Z,98.97
2023-04-08T04:42:17.025Z,87.73
2023-04-08T04:44:50.512Z,116.77
2023-04-08T04:47:26.216Z,98.90
2023-04-08T04:49:59.241Z,84.43
2023-04-08T04:52:32.341Z,89.00
2023-04-08T04:55:06.204Z,84.60
2023-04-08T04:57:41.171Z,85.93
2023-04-08T05:00:15.191Z,88.60
2023-04-08T05:02:50.890Z,82.60
2023-04-08T05:05:26.535Z,85.67
2023-04-08T05:08:00.301Z,90.90
2023-04-08T05:10:38.234Z,83.90
2023-04-08T05:13:12.710Z,98.97
2023-04-08T05:15:46.296Z,102.97
2023-04-08T05:18:31.750Z,89.10
2023-04-08T05:21:05.178Z,93.90
2023-04-08T05:23:42.917Z,109.87
2023-04-08T05:26:18.258Z,90.90
2023-04-08T05:28:52.970Z,102.00
2023-04-08T05:31:26.444Z,104.77
2023-04-08T05:34:01.905Z,85.20
2023-04-08T05:36:34.768Z,98.90
2023-04-08T05:39:07.682Z,94.07
2023-04-08T05:41:40.794Z,87.43
2023-04-08T05:44:15.525Z,96.43
2023-04-08T05:46:50.572Z,90.67
2023-04-08T05:52:18.923Z,100.00
2023-04-08T05:54:52.427Z,107.50
2023-04-08T05:57:25.572Z,97.23
2023-04-08T05:59:58.702Z,88.33
2023-04-08T06:02:34.899Z,93.87
2023-04-08T06:05:10.344Z,96.50
2023-04-08T06:07:43.233Z,99.17
2023-04-08T06:10:18.816Z,99.57
2023-04-08T06:12:52.167Z,89.33
2023-04-08T06:15:26.501Z,93.47
2023-04-08T06:17:59.885Z,92.67
2023-04-08T06:20:36.554Z,91.57
2023-04-08T06:23:10.225Z,100.53
2023-04-08T06:25:44.061Z,87.17
2023-04-08T06:28:19.133Z,89.33
2023-04-08T06:30:52.012Z,89.10
2023-04-08T06:33:33.253Z,96.97
2023-04-08T06:36:12.797Z,96.77
2023-04-08T06:38:46.273Z,84.10
2023-04-08T06:41:19.887Z,78.17
2023-04-08T06:43:55.724Z,84.13
2023-04-08T06:46:32.387Z,84.47
2023-04-08T06:49:08.326Z,83.87
2023-04-08T06:51:43.058Z,73.90
2023-04-08T06:54:16.156Z,83.93
2023-04-08T06:56:50.073Z,84.30
2023-04-08T06:59:23.271Z,70.37
2023-04-08T07:01:57.303Z,80.77
2023-04-08T07:04:33.388Z,73.80
2023-04-08T07:07:08.711Z,76.43
2023-04-08T07:09:46.251Z,73.67
2023-04-08T07:12:28.255Z,76.67
2023-04-08T07:15:05.094Z,83.87
2023-04-08T07:17:38.336Z,75.03
2023-04-08T07:20:14.114Z,83.27
2023-04-08T07:22:48.845Z,76.07
2023-04-08T07:25:22.248Z,80.03
2023-04-08T07:28:07.822Z,65.83
2023-04-08T07:30:41.771Z,80.63
2023-04-08T07:33:14.870Z,62.77
2023-04-08T07:35:48.507Z,87.93
2023-04-08T07:38:23.218Z,82.17
2023-04-08T07:40:56.368Z,85.33
2023-04-08T07:43:30.162Z,70.90
2023-04-08T07:46:06.943Z,81.03
2023-04-08T07:48:41.795Z,68.43
2023-04-08T07:51:16.439Z,82.17
2023-04-08T07:53:55.899Z,72.23
2023-04-08T07:56:31.782Z,84.60
2023-04-08T07:59:04.787Z,86.27
2023-04-08T08:01:38.298Z,72.17
2023-04-08T08:04:13.629Z,71.40
2023-04-08T08:06:49.032Z,64.07
2023-04-08T08:09:24.282Z,76.30
2023-04-08T08:11:57.837Z,62.73
2023-04-08T08:14:32.481Z,72.23
2023-04-08T08:17:08.692Z,84.00
2023-04-08T08:19:43.013Z,67.77
2023-04-08T08:22:17.343Z,80.00
2023-04-08T08:24:52.834Z,76.73
2023-04-08T08:27:26.292Z,66.40
2023-04-08T08:30:00.321Z,73.93
2023-04-08T08:32:34.318Z,72.90
2023-04-08T08:35:08.084Z,76.37
2023-04-08T08:37:41.895Z,71.37
2023-04-08T08:40:18.598Z,79.10
2023-04-08T08:42:55.993Z,60.73
2023-04-08T08:48:20.056Z,75.93
2023-04-08T08:50:53.297Z,65.70
2023-04-08T08:53:35.995Z,66.10
2023-04-08T08:56:17.726Z,69.23
2023-04-08T08:58:52.232Z,73.10
2023-04-08T09:01:39.141Z,71.97
2023-04-08T09:04:18.445Z,66.33
2023-04-08T09:06:54.396Z,66.53
2023-04-08T09:09:29.568Z,78.77
2023-04-08T09:12:10.844Z,52.37
2023-04-08T09:14:45.203Z,63.50
2023-04-08T09:17:18.423Z,62.00
2023-04-08T09:20:27.701Z,75.73
2023-04-08T09:23:02.552Z,59.00
2023-04-08T09:25:36.646Z,65.70
2023-04-08T09:28:24.740Z,74.70
2023-04-08T09:30:57.577Z,63.23
2023-04-08T09:33:35.871Z,63.63
2023-04-08T09:36:10.096Z,76.83
2023-04-08T09:38:43.207Z,74.37
2023-04-08T09:41:28.125Z,65.50
2023-04-08T09:44:04.172Z,72.97
2023-04-08T09:46:43.605Z,78.60
2023-04-08T09:49:22.733Z,69.23
2023-04-08T09:52:03.051Z,80.53
2023-04-08T09:54:46.587Z,61.00
2023-04-08T09:57:33.571Z,77.20
2023-04-08T10:00:19.925Z,56.93
2023-04-08T10:02:59.966Z,76.53
2023-04-08T10:05:34.326Z,71.97
2023-04-08T10:08:08.759Z,50.73
2023-04-08T10:10:48.227Z,59.57
2023-04-08T10:13:22.179Z,66.10
2023-04-08T10:16:25.623Z,72.63
2023-04-08T10:18:59.708Z,57.77
2023-04-08T10:21:42.212Z,75.30
2023-04-08T10:24:16.081Z,73.13
2023-04-08T10:26:50.690Z,77.27
2023-04-08T10:29:49.253Z,69.33
2023-04-08T10:32:46.729Z,57.30
2023-04-08T10:35:21.529Z,64.73
2023-04-08T10:37:54.988Z,54.80
2023-04-08T10:40:28.666Z,62.87
2023-04-08T10:43:02.491Z,63.57
2023-04-08T10:45:36.163Z,70.77
2023-04-08T10:48:22.415Z,60.40
2023-04-08T10:50:59.568Z,64.90
2023-04-08T10:53:37.814Z,74.07
2023-04-08T10:56:14.168Z,61.30
2023-04-08T10:58:55.006Z,65.30
2023-04-08T11:01:37.394Z,62.40
2023-04-08T11:04:21.535Z,60.93
2023-04-08T11:06:55.169Z,64.83
2023-04-08T11:09:29.320Z,66.87
2023-04-08T11:12:04.576Z,62.37
2023-04-08T11:14:41.003Z,69.20
2023-04-08T11:17:16.340Z,54.90
2023-04-08T11:19:52.819Z,64.77
2023-04-08T11:22:26.885Z,62.67
2023-04-08T11:25:01.152Z,64.60
2023-04-08T11:27:35.122Z,60.60
2023-04-08T11:30:10.170Z,67.03
2023-04-08T11:32:44.628Z,61.10
2023-04-08T11:35:23.075Z,61.00
2023-04-08T11:37:57.762Z,68.47
2023-04-08T11:40:31.244Z,68.70
2023-04-08T11:43:12.990Z,71.70
2023-04-08T11:45:47.232Z,65.47
2023-04-08T11:48:21.297Z,58.83
2023-04-08T11:51:10.084Z,61.07
2023-04-08T11:53:43.490Z,70.67
2023-04-08T11:56:23.897Z,63.87
2023-04-08T11:58:57.624Z,56.93
2023-04-08T12:01:32.328Z,70.23
2023-04-08T12:04:09.985Z,73.07
2023-04-08T12:06:48.855Z,66.43
2023-04-08T12:09:22.694Z,79.07
2023-04-08T12:11:55.982Z,73.87
2023-04-08T12:14:53.766Z,73.53
2023-04-08T12:17:26.871Z,73.13
2023-04-08T12:20:01.924Z,63.97
2023-04-08T12:22:36.922Z,85.67
2023-04-08T12:25:10.980Z,77.70
2023-04-08T12:27:44.674Z,66.97
2023-04-08T12:30:22.375Z,68.80
2023-04-08T12:32:57.628Z,73.40
2023-04-08T12:35:39.786Z,72.40
2023-04-08T12:38:20.366Z,65.13
2023-04-08T12:40:53.344Z,82.47
2023-04-08T12:43:28.175Z,73.80
2023-04-08T12:46:01.236Z,68.03
2023-04-08T12:48:34.979Z,65.40
2023-04-08T12:51:10.236Z,82.70
2023-04-08T12:53:46.529Z,74.20
2023-04-08T12:56:20.190Z,65.50
2023-04-08T12:58:55.688Z,71.33
2023-04-08T13:01:29.299Z,76.67
2023-04-08T13:04:02.544Z,82.53
2023-04-08T13:06:40.955Z,77.80
2023-04-08T13:09:22.177Z,60.83
2023-04-08T13:12:05.924Z,72.30
2023-04-08T13:14:39.713Z,65.80
2023-04-08T13:17:13.501Z,63.23
2023-04-08T13:19:53.098Z,54.97
2023-04-08T13:22:36.796Z,56.80
2023-04-08T13:25:12.515Z,55.13
2023-04-08T13:27:47.272Z,67.10
2023-04-08T13:30:24.410Z,68.47
2023-04-08T13:32:57.867Z,58.07
2023-04-08T13:35:32.914Z,57.43
2023-04-08T13:38:12.964Z,53.33
2023-04-08T13:40:51.720Z,58.27
2023-04-08T13:43:25.010Z,53.03
2023-04-08T13:45:58.990Z,59.97
2023-04-08T13:48:33.668Z,61.43
2023-04-08T13:51:08.718Z,56.27
2023-04-08T13:53:41.786Z,49.97
2023-04-08T13:56:16.709Z,51.80
2023-04-08T14:01:55.609Z,47.20
2023-04-08T14:04:28.681Z,51.47
2023-04-08T14:07:06.821Z,56.70
2023-04-08T14:09:40.215Z,53.60
2023-04-08T14:12:15.908Z,46.90
2023-04-08T14:14:53.446Z,46.47
2023-04-08T14:17:30.445Z,56.43
2023-04-08T14:20:06.730Z,62.13
2023-04-08T14:22:41.438Z,56.53
2023-04-08T14:25:14.972Z,59.47
2023-04-08T14:27:58.416Z,56.87
2023-04-08T14:30:32.055Z,61.13
2023-04-08T14:33:07.601Z,64.07
2023-04-08T14:35:44.039Z,55.00
2023-04-08T14:38:19.587Z,54.77
2023-04-08T14:40:54.332Z,54.40
2023-04-08T14:43:33.178Z,56.20
2023-04-08T14:46:07.790Z,61.43
2023-04-08T14:48:42.693Z,53.30
2023-04-08T14:51:26.449Z,63.77
2023-04-08T14:54:11.057Z,54.47
2023-04-08T14:56:47.715Z,50.83
2023-04-08T14:59:35.617Z,48.80
2023-04-08T15:02:11.314Z,53.80
2023-04-08T15:04:44.404Z,44.83
2023-04-08T15:07:19.702Z,48.93
2023-04-08T15:09:54.140Z,54.30
2023-04-08T15:15:18.227Z,60.50
2023-04-08T15:17:52.472Z,58.80
2023-04-08T15:20:29.706Z,50.63
2023-04-08T15:23:04.080Z,55.97
2023-04-08T15:25:36.942Z,58.73
2023-04-08T15:28:11.796Z,51.50
2023-04-08T15:30:48.488Z,48.57
2023-04-08T15:33:24.469Z,59.30
2023-04-08T15:36:01.823Z,41.73
2023-04-08T15:38:36.407Z,51.77
2023-04-08T15:41:10.483Z,54.37
2023-04-08T15:43:45.609Z,50.00
2023-04-08T15:46:25.074Z,49.60
2023-04-08T15:49:02.096Z,48.97
2023-04-08T15:51:36.109Z,48.40
2023-04-08T15:54:12.519Z,57.33
2023-04-08T15:56:47.744Z,55.43
2023-04-08T15:59:22.994Z,49.37
2023-04-08T16:01:58.745Z,50.87
2023-04-08T16:04:34.990Z,45.80
2023-04-08T16:07:09.282Z,43.67
2023-04-08T16:09:42.605Z,38.30
2023-04-08T16:12:16.511Z,47.00
2023-04-08T16:14:50.807Z,42.37
2023-04-08T16:17:25.511Z,45.60
2023-04-08T16:19:58.935Z,49.73
2023-04-08T16:22:33.331Z,47.67
2023-04-08T16:25:06.813Z,47.70
2023-04-08T16:27:40.984Z,53.87
2023-04-08T16:30:15.336Z,41.60
2023-04-08T16:32:50.156Z,47.23
2023-04-08T16:35:23.864Z,51.30
2023-04-08T16:37:57.046Z,45.37
2023-04-08T16:40:34.213Z,49.20
2023-04-08T16:43:09.068Z,50.90
2023-04-08T16:45:43.227Z,50.07
2023-04-08T16:48:18.904Z,46.47
2023-04-08T16:50:53.067Z,50.33
2023-04-08T16:53:26.864Z,51.23
2023-04-08T16:56:00.300Z,55.00
2023-04-08T16:58:33.727Z,56.27
2023-04-08T17:01:11.375Z,48.23
2023-04-08T17:03:46.710Z,41.07
2023-04-08T17:06:20.159Z,45.70
2023-04-08T17:08:53.034Z,50.00
2023-04-08T17:11:26.101Z,45.57
2023-04-08T17:13:59.839Z,47.70
2023-04-08T17:16:33.456Z,49.37
2023-04-08T17:19:09.001Z,46.40
2023-04-08T17:21:43.249Z,44.20
2023-04-08T17:24:16.359Z,39.37
2023-04-08T17:26:49.319Z,43.70
2023-04-08T17:29:22.506Z,44.93
2023-04-08T17:31:56.417Z,47.60
2023-04-08T17:34:35.334Z,52.63
2023-04-08T17:37:12.340Z,50.10
2023-04-08T17:39:48.950Z,44.60
2023-04-08T17:42:24.607Z,51.20
2023-04-08T17:44:59.923Z,44.40
2023-04-08T17:47:33.127Z,53.40
2023-04-08T17:50:08.932Z,48.53
2023-04-08T17:52:47.527Z,46.50
2023-04-08T17:55:21.530Z,48.60
2023-04-08T17:57:54.433Z,45.93
2023-04-08T18:00:29.596Z,41.77
2023-04-08T18:03:03.325Z,54.83
2023-04-08T18:05:39.122Z,46.27
2023-04-08T18:08:12.491Z,53.40
2023-04-08T18:10:47.010Z,50.23
2023-04-08T18:13:20.534Z,50.37
2023-04-08T18:15:54.949Z,48.97
2023-04-08T18:18:28.227Z,44.43
2023-04-08T18:21:03.529Z,43.63
2023-04-08T18:23:36.453Z,43.80
2023-04-08T18:26:10.523Z,43.10
2023-04-08T18:28:44.484Z,51.27
2023-04-08T18:31:17.867Z,47.13
2023-04-08T18:33:51.839Z,48.43
2023-04-08T18:36:27.988Z,44.37
2023-04-08T18:39:00.817Z,50.23
2023-04-08T18:41:33.981Z,46.77
2023-04-08T18:44:07.102Z,43.33
2023-04-08T18:46:40.217Z,45.83
2023-04-08T18:49:13.138Z,37.03
2023-04-08T18:51:59.474Z,45.63
2023-04-08T18:54:34.938Z,43.33
2023-04-08T18:57:08.116Z,48.40
2023-04-08T18:59:40.988Z,37.57
2023-04-08T19:02:14.110Z,49.67
2023-04-08T19:04:47.042Z,46.57
2023-04-08T19:07:22.558Z,48.50
2023-04-08T19:10:00.561Z,52.03
2023-04-08T19:12:34.306Z,52.33
2023-04-08T19:15:07.721Z,44.50
2023-04-08T19:17:41.733Z,49.63
2023-04-08T19:20:15.559Z,45.47
2023-04-08T19:22:51.766Z,48.30
2023-04-08T19:25:24.934Z,45.77
2023-04-08T19:27:58.553Z,46.03
2023-04-08T19:30:32.503Z,45.93
2023-04-08T19:33:05.901Z,44.73
2023-04-08T19:35:40.057Z,44.90
2023-04-08T19:38:15.212Z,47.67
2023-04-08T19:40:49.166Z,47.57
2023-04-08T19:43:22.337Z,43.27
2023-04-08T19:46:00.075Z,46.97
2023-04-08T19:48:34.138Z,44.40
2023-04-08T19:51:08.232Z,45.33
2023-04-08T19:53:43.627Z,43.23
2023-04-08T19:56:17.814Z,40.70
2023-04-08T19:58:51.957Z,43.80
2023-04-08T20:01:25.770Z,45.87
2023-04-08T20:03:59.601Z,48.80
2023-04-08T20:06:35.210Z,50.03
2023-04-08T20:09:10.212Z,40.53
2023-04-08T20:11:43.692Z,45.43
2023-04-08T20:14:17.123Z,42.27
2023-04-08T20:16:51.213Z,47.17
2023-04-08T20:19:24.866Z,48.60
2023-04-08T20:21:58.553Z,45.60
2023-04-08T20:24:35.143Z,53.50
2023-04-08T20:27:08.688Z,47.80
2023-04-08T20:29:43.218Z,42.83
2023-04-08T20:32:18.874Z,73.10
2023-04-08T20:34:51.815Z,75.27
2023-04-08T20:37:24.831Z,82.20
2023-04-08T20:40:00.392Z,77.77
2023-04-08T20:42:33.916Z,70.00
2023-04-08T20:45:07.435Z,81.30
2023-04-08T20:47:41.133Z,80.20
2023-04-08T20:50:15.544Z,73.07
2023-04-08T20:52:49.314Z,80.63
2023-04-08T20:55:25.421Z,79.37
2023-04-08T20:57:59.296Z,77.43
2023-04-08T21:00:33.345Z,79.47
2023-04-08T21:03:07.364Z,97.37
2023-04-08T21:05:44.019Z,97.23
2023-04-08T21:08:17.486Z,87.33
2023-04-08T21:10:52.210Z,89.33
2023-04-08T21:13:25.448Z,81.27
2023-04-08T21:15:58.787Z,90.67
2023-04-08T21:18:32.542Z,91.63
2023-04-08T21:21:05.921Z,91.53
2023-04-08T21:23:39.608Z,91.20
2023-04-08T21:26:18.478Z,100.63
2023-04-08T21:28:52.189Z,97.97
2023-04-08T21:31:25.541Z,93.30
2023-04-08T21:33:58.864Z,96.43
2023-04-08T21:36:32.695Z,90.37
2023-04-08T21:39:05.632Z,88.23
2023-04-08T21:41:41.865Z,98.03
2023-04-08T21:44:16.930Z,85.43
2023-04-08T21:46:52.659Z,102.17
2023-04-08T21:49:26.357Z,88.87
2023-04-08T21:52:00.021Z,102.23
2023-04-08T21:54:33.454Z,98.97
2023-04-08T21:57:08.852Z,76.33
2023-04-08T21:59:43.641Z,80.00
2023-04-08T22:02:17.248Z,91.03
2023-04-08T22:04:50.933Z,84.23
2023-04-08T22:07:24.370Z,94.00
2023-04-08T22:10:01.342Z,82.60
2023-04-08T22:12:37.132Z,90.40
2023-04-08T22:15:11.235Z,88.93
2023-04-08T22:17:44.416Z,100.40
2023-04-08T22:20:17.532Z,88.73
2023-04-08T22:22:50.931Z,81.63
2023-04-08T22:25:24.597Z,90.80
2023-04-08T22:28:00.327Z,84.70
2023-04-08T22:30:34.378Z,85.13
2023-04-08T22:33:08.037Z,77.77
2023-04-08T22:35:41.107Z,92.93
2023-04-08T22:38:14.391Z,75.93
2023-04-08T22:40:47.707Z,85.27
2023-04-08T22:43:23.410Z,81.73
2023-04-08T22:45:56.859Z,84.87
2023-04-08T22:48:30.551Z,77.20
2023-04-08T22:51:04.606Z,76.73
2023-04-08T22:53:38.013Z,89.67
2023-04-08T22:56:12.213Z,82.20
2023-04-08T22:58:47.785Z,83.80
2023-04-08T23:01:23.569Z,77.67
2023-04-08T23:03:57.537Z,74.80
2023-04-08T23:06:34.328Z,82.53
2023-04-08T23:09:09.193Z,84.97
2023-04-08T23:11:42.748Z,83.40
2023-04-08T23:14:19.617Z,79.13
2023-04-08T23:16:52.860Z,77.30
2023-04-08T23:19:26.480Z,83.67
2023-04-08T23:21:59.439Z,85.77
2023-04-08T23:24:33.430Z,71.80
2023-04-08T23:27:06.934Z,73.87
2023-04-08T23:29:42.488Z,84.33
2023-04-08T23:32:16.365Z,71.67
2023-04-08T23:34:49.669Z,65.73
2023-04-08T23:37:22.685Z,76.93
2023-04-08T23:39:55.901Z,79.37
2023-04-08T23:42:29.974Z,66.53
2023-04-08T23:45:05.507Z,68.07
2023-04-08T23:47:40.709Z,74.37
2023-04-08T23:53:11.713Z,88.60
2023-04-08T23:55:45.473Z,72.93
2023-04-08T23:58:19.503Z,85.83
